createdAt,value
2019-05-10T00:00:32.886Z,1003.00
2019-05-10T00:01:32.875Z,1003.02
2019-05-10T00:02:32.895Z,1003.09
2019-05-10T00:03:32.878Z,1003.10
2019-05-10T00:04:32.844Z,1003.12
2019-05-10T00:05:32.854Z,1003.16
2019-05-10T00:06:32.850Z,1003.12
2019-05-10T00:07:32.836Z,1003.15
2019-05-10T00:08:32.802Z,1003.20
2019-05-10T00:09:32.792Z,1003.10
2019-05-10T00:10:32.791Z,1003.18
2019-05-10T00:11:32.794Z,1003.25
2019-05-10T00:12:32.763Z,1003.16
2019-05-10T00:13:32.761Z,1003.18
2019-05-10T00:14:32.745Z,1003.16
2019-05-10T00:15:32.729Z,1003.21
2019-05-10T00:16:32.730Z,1003.24
2019-05-10T00:17:32.713Z,1003.17
2019-05-10T00:18:32.707Z,1003.22
2019-05-10T00:19:32.688Z,1003.23
2019-05-10T00:20:32.679Z,1003.30
2019-05-10T00:21:32.676Z,1003.32
2019-05-10T00:22:32.657Z,1003.45
2019-05-10T00:23:32.649Z,1003.39
2019-05-10T00:24:32.637Z,1003.34
2019-05-10T00:25:32.625Z,1003.35
2019-05-10T00:26:32.626Z,1003.43
2019-05-10T00:27:32.604Z,1003.44
2019-05-10T00:28:32.585Z,1003.46
2019-05-10T00:29:32.583Z,1003.44
2019-05-10T00:30:32.573Z,1003.47
2019-05-10T00:31:32.552Z,1003.45
2019-05-10T00:32:32.543Z,1003.44
2019-05-10T00:33:32.532Z,1003.44
2019-05-10T00:34:32.541Z,1003.34
2019-05-10T00:35:32.521Z,1003.45
2019-05-10T00:36:32.502Z,1003.52
2019-05-10T00:37:32.490Z,1003.46
2019-05-10T00:38:32.482Z,1003.47
2019-05-10T00:39:32.482Z,1003.48
2019-05-10T00:40:32.459Z,1003.44
2019-05-10T00:41:32.448Z,1003.49
2019-05-10T00:42:32.458Z,1003.50
2019-05-10T00:43:32.428Z,1003.52
2019-05-10T00:44:32.432Z,1003.47
2019-05-10T00:45:32.406Z,1003.50
2019-05-10T00:46:32.396Z,1003.57
2019-05-10T00:47:32.387Z,1003.54
2019-05-10T00:48:32.377Z,1003.57
2019-05-10T00:49:32.385Z,1003.57
2019-05-10T00:50:32.353Z,1003.56
2019-05-10T00:51:32.344Z,1003.56
2019-05-10T00:52:32.338Z,1003.60
2019-05-10T00:53:32.355Z,1003.60
2019-05-10T00:54:32.314Z,1003.55
2019-05-10T00:55:32.311Z,1003.60
2019-05-10T00:56:32.310Z,1003.65
2019-05-10T00:57:32.282Z,1003.72
2019-05-10T00:58:32.261Z,1003.61
2019-05-10T00:59:32.251Z,1003.76
2019-05-10T01:00:32.253Z,1003.69
2019-05-10T01:01:32.256Z,1003.69
2019-05-10T01:02:32.234Z,1003.71
2019-05-10T01:03:32.218Z,1003.68
2019-05-10T01:04:32.208Z,1003.77
2019-05-10T01:05:32.204Z,1003.75
2019-05-10T01:06:32.179Z,1003.76
2019-05-10T01:07:32.178Z,1003.68
2019-05-10T01:08:32.157Z,1003.73
2019-05-10T01:09:32.148Z,1003.75
2019-05-10T01:10:32.146Z,1003.78
2019-05-10T01:11:32.127Z,1003.78
2019-05-10T01:12:32.115Z,1003.72
2019-05-10T01:13:32.104Z,1003.78
2019-05-10T01:14:32.105Z,1003.81
2019-05-10T01:15:32.099Z,1003.78
2019-05-10T01:16:32.064Z,1003.83
2019-05-10T01:17:32.063Z,1003.78
2019-05-10T01:18:32.069Z,1003.80
2019-05-10T01:19:32.033Z,1003.80
2019-05-10T01:20:32.032Z,1003.83
2019-05-10T01:21:32.018Z,1003.83
2019-05-10T01:22:32.014Z,1003.91
2019-05-10T01:23:32.001Z,1003.83
2019-05-10T01:24:31.990Z,1003.92
2019-05-10T01:25:35.019Z,1003.97
2019-05-10T01:26:31.961Z,1004.06
2019-05-10T01:27:31.960Z,1003.96
2019-05-10T01:28:31.941Z,1004.00
2019-05-10T01:29:31.941Z,1004.02
2019-05-10T01:30:31.919Z,1004.02
2019-05-10T01:31:31.908Z,1004.06
2019-05-10T01:32:31.926Z,1004.01
2019-05-10T01:33:31.887Z,1004.09
2019-05-10T01:34:31.876Z,1004.12
2019-05-10T01:35:31.866Z,1004.13
2019-05-10T01:36:31.855Z,1004.15
2019-05-10T01:37:31.866Z,1004.19
2019-05-10T01:38:31.844Z,1004.23
2019-05-10T01:39:31.837Z,1004.19
2019-05-10T01:40:31.814Z,1004.17
2019-05-10T01:41:31.803Z,1004.25
2019-05-10T01:42:31.787Z,1004.13
2019-05-10T01:43:31.791Z,1004.24
2019-05-10T01:44:31.763Z,1004.22
2019-05-10T01:45:31.770Z,1004.28
2019-05-10T01:46:31.750Z,1004.29
2019-05-10T01:47:31.741Z,1004.24
2019-05-10T01:48:31.739Z,1004.36
2019-05-10T01:49:31.720Z,1004.38
2019-05-10T01:50:31.719Z,1004.35
2019-05-10T01:51:31.690Z,1004.40
2019-05-10T01:52:31.680Z,1004.40
2019-05-10T01:53:31.688Z,1004.47
2019-05-10T01:54:31.668Z,1004.51
2019-05-10T01:55:31.667Z,1004.48
2019-05-10T01:56:31.646Z,1004.46
2019-05-10T01:57:31.629Z,1004.52
2019-05-10T01:58:31.640Z,1004.51
2019-05-10T01:59:31.605Z,1004.50
2019-05-10T02:00:31.604Z,1004.53
2019-05-10T02:01:31.587Z,1004.49
2019-05-10T02:02:31.576Z,1004.60
2019-05-10T02:03:31.574Z,1004.57
2019-05-10T02:04:31.554Z,1004.63
2019-05-10T02:05:31.544Z,1004.66
2019-05-10T02:06:31.532Z,1004.62
2019-05-10T02:07:31.538Z,1004.56
2019-05-10T02:08:31.522Z,1004.62
2019-05-10T02:09:33.400Z,1004.61
2019-05-10T02:10:31.504Z,1004.52
2019-05-10T02:11:31.521Z,1004.61
2019-05-10T02:12:31.469Z,1004.67
2019-05-10T02:13:31.531Z,1004.72
2019-05-10T02:14:31.460Z,1004.70
2019-05-10T02:15:31.456Z,1004.67
2019-05-10T02:16:31.439Z,1004.74
2019-05-10T02:17:31.418Z,1004.72
2019-05-10T02:18:31.398Z,1004.78
2019-05-10T02:19:31.408Z,1004.87
2019-05-10T02:20:31.387Z,1004.82
2019-05-10T02:21:31.438Z,1004.79
2019-05-10T02:22:31.366Z,1004.81
2019-05-10T02:23:31.355Z,1004.80
2019-05-10T02:24:31.335Z,1004.77
2019-05-10T02:25:31.325Z,1004.77
2019-05-10T02:26:31.332Z,1004.83
2019-05-10T02:27:31.306Z,1004.85
2019-05-10T02:28:31.293Z,1004.96
2019-05-10T02:29:31.283Z,1004.89
2019-05-10T02:30:31.273Z,1004.96
2019-05-10T02:31:31.272Z,1004.95
2019-05-10T02:32:31.272Z,1004.95
2019-05-10T02:33:31.242Z,1004.99
2019-05-10T02:34:31.313Z,1005.01
2019-05-10T02:35:31.224Z,1005.00
2019-05-10T02:36:31.221Z,1004.99
2019-05-10T02:37:31.215Z,1005.03
2019-05-10T02:38:31.200Z,1005.03
2019-05-10T02:39:31.195Z,1005.02
2019-05-10T02:40:31.167Z,1005.06
2019-05-10T02:41:31.148Z,1005.10
2019-05-10T02:42:31.150Z,1005.09
2019-05-10T02:43:31.138Z,1005.12
2019-05-10T02:44:31.128Z,1005.11
2019-05-10T02:45:31.115Z,1005.11
2019-05-10T02:46:31.097Z,1005.11
2019-05-10T02:47:31.126Z,1005.13
2019-05-10T02:48:31.105Z,1005.10
2019-05-10T02:49:31.075Z,1005.08
2019-05-10T02:50:31.140Z,1005.25
2019-05-10T02:51:31.066Z,1005.19
2019-05-10T02:52:31.045Z,1005.15
2019-05-10T02:53:31.035Z,1005.17
2019-05-10T02:54:31.014Z,1005.24
2019-05-10T02:55:31.031Z,1005.28
2019-05-10T02:56:31.742Z,1005.28
2019-05-10T02:57:30.992Z,1005.29
2019-05-10T02:58:30.972Z,1005.29
2019-05-10T02:59:30.962Z,1005.40
2019-05-10T03:00:30.968Z,1005.40
2019-05-10T03:01:30.941Z,1005.42
2019-05-10T03:02:30.929Z,1005.42
2019-05-10T03:03:30.920Z,1005.47
2019-05-10T03:04:30.926Z,1005.47
2019-05-10T03:05:30.900Z,1005.50
2019-05-10T03:06:30.888Z,1005.47
2019-05-10T03:07:30.877Z,1005.50
2019-05-10T03:08:30.866Z,1005.51
2019-05-10T03:09:30.866Z,1005.54
2019-05-10T03:10:30.846Z,1005.50
2019-05-10T03:11:30.836Z,1005.53
2019-05-10T03:12:30.826Z,1005.59
2019-05-10T03:13:30.833Z,1005.57
2019-05-10T03:14:30.804Z,1005.60
2019-05-10T03:15:30.785Z,1005.61
2019-05-10T03:16:30.784Z,1005.59
2019-05-10T03:17:30.805Z,1005.65
2019-05-10T03:18:30.766Z,1005.71
2019-05-10T03:19:30.756Z,1005.63
2019-05-10T03:20:30.741Z,1005.64
2019-05-10T03:21:30.724Z,1005.65
2019-05-10T03:22:30.732Z,1005.58
2019-05-10T03:23:30.701Z,1005.66
2019-05-10T03:24:30.700Z,1005.66
2019-05-10T03:25:30.680Z,1005.56
2019-05-10T03:26:40.744Z,1005.62
2019-05-10T03:27:31.669Z,1005.63
2019-05-10T03:28:30.655Z,1005.66
2019-05-10T03:29:30.676Z,1005.63
2019-05-10T03:30:30.628Z,1005.64
2019-05-10T03:31:30.628Z,1005.65
2019-05-10T03:32:30.619Z,1005.71
2019-05-10T03:33:30.597Z,1005.72
2019-05-10T03:34:30.637Z,1005.72
2019-05-10T03:35:30.841Z,1005.76
2019-05-10T03:36:30.616Z,1005.77
2019-05-10T03:37:30.576Z,1005.76
2019-05-10T03:38:30.554Z,1005.83
2019-05-10T03:39:30.545Z,1005.79
2019-05-10T03:40:30.546Z,1005.77
2019-05-10T03:41:30.513Z,1005.81
2019-05-10T03:42:30.526Z,1005.78
2019-05-10T03:43:30.502Z,1005.80
2019-05-10T03:44:30.500Z,1005.83
2019-05-10T03:45:30.496Z,1005.83
2019-05-10T03:46:30.465Z,1005.83
2019-05-10T03:47:30.456Z,1005.86
2019-05-10T03:48:30.430Z,1005.90
2019-05-10T03:49:30.436Z,1005.86
2019-05-10T03:50:30.413Z,1005.89
2019-05-10T03:51:30.410Z,1005.87
2019-05-10T03:52:30.389Z,1005.90
2019-05-10T03:53:30.388Z,1005.97
2019-05-10T03:54:30.368Z,1005.92
2019-05-10T03:55:30.359Z,1005.93
2019-05-10T03:56:30.346Z,1006.00
2019-05-10T03:57:30.339Z,1005.96
2019-05-10T03:58:30.337Z,1005.99
2019-05-10T03:59:30.327Z,1006.06
2019-05-10T04:00:30.319Z,1005.96
2019-05-10T04:01:30.294Z,1006.04
2019-05-10T04:02:30.283Z,1006.07
2019-05-10T04:03:30.286Z,1006.06
2019-05-10T04:04:30.264Z,1006.00
2019-05-10T04:05:30.244Z,1006.08
2019-05-10T04:06:30.244Z,1006.06
2019-05-10T04:07:30.235Z,1006.07
2019-05-10T04:08:30.228Z,1006.09
2019-05-10T04:09:30.221Z,1006.14
2019-05-10T04:10:30.245Z,1006.17
2019-05-10T04:11:30.208Z,1006.08
2019-05-10T04:12:30.186Z,1006.16
2019-05-10T04:13:30.198Z,1006.17
2019-05-10T04:14:30.150Z,1006.22
2019-05-10T04:15:30.168Z,1006.22
2019-05-10T04:16:30.174Z,1006.16
2019-05-10T04:17:30.118Z,1006.23
2019-05-10T04:18:30.123Z,1006.28
2019-05-10T04:19:30.097Z,1006.26
2019-05-10T04:20:30.087Z,1006.32
2019-05-10T04:21:30.076Z,1006.33
2019-05-10T04:22:30.081Z,1006.37
2019-05-10T04:23:30.054Z,1006.39
2019-05-10T04:24:30.057Z,1006.44
2019-05-10T04:25:30.047Z,1006.38
2019-05-10T04:26:30.040Z,1006.38
2019-05-10T04:27:32.882Z,1006.42
2019-05-10T04:28:30.005Z,1006.41
2019-05-10T04:29:29.991Z,1006.42
2019-05-10T04:30:31.889Z,1006.44
2019-05-10T04:31:29.982Z,1006.45
2019-05-10T04:32:29.972Z,1006.48
2019-05-10T04:33:29.951Z,1006.44
2019-05-10T04:34:29.930Z,1006.50
2019-05-10T04:35:29.950Z,1006.53
2019-05-10T04:36:29.909Z,1006.59
2019-05-10T04:37:29.927Z,1006.48
2019-05-10T04:38:29.906Z,1006.59
2019-05-10T04:39:29.879Z,1006.51
2019-05-10T04:40:29.869Z,1006.60
2019-05-10T04:41:29.869Z,1006.58
2019-05-10T04:42:29.850Z,1006.67
2019-05-10T04:43:29.837Z,1006.63
2019-05-10T04:44:29.829Z,1006.67
2019-05-10T04:45:29.824Z,1006.55
2019-05-10T04:46:29.816Z,1006.61
2019-05-10T04:47:29.802Z,1006.61
2019-05-10T04:48:29.793Z,1006.63
2019-05-10T04:49:29.784Z,1006.67
2019-05-10T04:50:29.764Z,1006.66
2019-05-10T04:51:29.757Z,1006.71
2019-05-10T04:52:29.753Z,1006.72
2019-05-10T04:53:29.747Z,1006.71
2019-05-10T04:54:29.732Z,1006.79
2019-05-10T04:55:29.714Z,1006.85
2019-05-10T04:56:29.707Z,1006.80
2019-05-10T04:57:29.696Z,1006.80
2019-05-10T04:58:29.691Z,1006.83
2019-05-10T04:59:29.660Z,1006.86
2019-05-10T05:00:29.659Z,1006.90
2019-05-10T05:01:29.929Z,1006.81
2019-05-10T05:02:29.639Z,1006.84
2019-05-10T05:03:29.620Z,1006.85
2019-05-10T05:04:29.618Z,1006.92
2019-05-10T05:05:29.626Z,1006.89
2019-05-10T05:06:29.588Z,1006.90
2019-05-10T05:07:29.587Z,1006.92
2019-05-10T05:08:29.568Z,1006.93
2019-05-10T05:09:29.565Z,1006.94
2019-05-10T05:10:29.545Z,1006.90
2019-05-10T05:11:29.535Z,1006.91
2019-05-10T05:12:29.562Z,1006.93
2019-05-10T05:13:29.514Z,1006.97
2019-05-10T05:14:29.506Z,1006.97
2019-05-10T05:15:29.493Z,1006.93
2019-05-10T05:16:29.483Z,1006.96
2019-05-10T05:17:29.482Z,1006.94
2019-05-10T05:18:29.462Z,1006.97
2019-05-10T05:19:29.451Z,1007.00
2019-05-10T05:20:29.441Z,1006.99
2019-05-10T05:21:29.431Z,1007.04
2019-05-10T05:22:29.440Z,1007.04
2019-05-10T05:23:29.425Z,1006.99
2019-05-10T05:24:29.409Z,1007.07
2019-05-10T05:25:29.399Z,1007.02
2019-05-10T05:26:29.379Z,1007.02
2019-05-10T05:27:29.358Z,1007.04
2019-05-10T05:28:29.355Z,1007.10
2019-05-10T05:29:29.338Z,1007.11
2019-05-10T05:30:29.337Z,1007.08
2019-05-10T05:31:29.316Z,1007.06
2019-05-10T05:32:29.385Z,1007.10
2019-05-10T05:33:29.295Z,1007.13
2019-05-10T05:34:29.295Z,1007.15
2019-05-10T05:35:29.284Z,1007.15
2019-05-10T05:36:29.264Z,1007.12
2019-05-10T05:37:29.257Z,1007.18
2019-05-10T05:38:29.243Z,1007.10
2019-05-10T05:39:29.233Z,1007.12
2019-05-10T05:40:29.243Z,1007.14
2019-05-10T05:41:31.828Z,1007.14
2019-05-10T05:42:29.480Z,1007.15
2019-05-10T05:43:29.201Z,1007.17
2019-05-10T05:44:29.185Z,1007.21
2019-05-10T05:45:33.984Z,1007.24
2019-05-10T05:46:30.170Z,1007.12
2019-05-10T05:47:29.154Z,1007.27
2019-05-10T05:48:40.050Z,1007.24
2019-05-10T05:49:30.129Z,1007.24
2019-05-10T05:50:29.159Z,1007.30
2019-05-10T05:51:29.119Z,1007.28
2019-05-10T05:52:29.103Z,1007.30
2019-05-10T05:53:29.093Z,1007.32
2019-05-10T05:54:29.076Z,1007.32
2019-05-10T05:55:30.530Z,1007.30
2019-05-10T05:56:29.075Z,1007.39
2019-05-10T05:57:29.652Z,1007.33
2019-05-10T05:58:29.025Z,1007.39
2019-05-10T05:59:29.016Z,1007.45
2019-05-10T06:00:29.005Z,1007.40
2019-05-10T06:01:29.735Z,1007.51
2019-05-10T06:02:28.985Z,1007.46
2019-05-10T06:03:29.683Z,1007.52
2019-05-10T06:04:28.981Z,1007.56
2019-05-10T06:05:33.944Z,1007.47
2019-05-10T06:06:29.944Z,1007.52
2019-05-10T06:07:31.256Z,1007.59
2019-05-10T06:08:30.360Z,1007.58
2019-05-10T06:09:32.023Z,1007.60
2019-05-10T06:11:38.803Z,1007.65
2019-05-10T06:12:38.785Z,1007.65
2019-05-10T06:13:38.774Z,1007.65
2019-05-10T06:14:43.152Z,1007.70
2019-05-10T06:15:39.756Z,1007.70
2019-05-10T06:16:39.395Z,1007.72
2019-05-10T06:17:38.765Z,1007.75
2019-05-10T06:18:41.666Z,1007.75
2019-05-10T06:19:39.721Z,1007.77
2019-05-10T06:20:44.430Z,1007.83
2019-05-10T06:21:39.703Z,1007.80
2019-05-10T06:22:43.827Z,1007.93
2019-05-10T06:23:39.688Z,1007.88
2019-05-10T06:24:38.669Z,1007.97
2019-05-10T06:25:42.088Z,1007.98
2019-05-10T06:26:38.656Z,1007.97
2019-05-10T06:27:41.058Z,1008.01
2019-05-10T06:28:59.281Z,1008.03
2019-05-10T06:29:42.959Z,1008.02
2019-05-10T06:30:38.596Z,1008.03
2019-05-10T06:31:38.598Z,1008.06
2019-05-10T06:32:38.576Z,1008.07
2019-05-10T06:33:39.751Z,1008.05
2019-05-10T06:34:40.295Z,1008.04
2019-05-10T06:35:38.588Z,1008.06
2019-05-10T06:36:38.524Z,1008.08
2019-05-10T06:37:38.529Z,1008.09
2019-05-10T06:38:38.513Z,1008.12
2019-05-10T06:39:38.504Z,1008.16
2019-05-10T06:40:46.416Z,1008.20
2019-05-10T06:41:39.486Z,1008.28
2019-05-10T06:42:38.461Z,1008.23
2019-05-10T06:43:38.461Z,1008.21
2019-05-10T06:44:38.451Z,1008.31
2019-05-10T06:45:38.449Z,1008.36
2019-05-10T06:46:38.429Z,1008.34
2019-05-10T06:47:45.247Z,1008.27
2019-05-10T06:48:39.399Z,1008.39
2019-05-10T06:49:40.987Z,1008.40
2019-05-10T06:50:39.389Z,1008.35
2019-05-10T06:51:42.918Z,1008.39
2019-05-10T06:52:39.359Z,1008.38
2019-05-10T06:53:42.159Z,1008.43
2019-05-10T06:54:39.337Z,1008.46
2019-05-10T06:55:38.338Z,1008.47
2019-05-10T06:56:38.338Z,1008.52
2019-05-10T06:57:38.303Z,1008.51
2019-05-10T06:58:38.552Z,1008.50
2019-05-10T06:59:38.291Z,1008.56
2019-05-10T07:00:44.516Z,1008.53
2019-05-10T07:01:45.821Z,1008.51
2019-05-10T07:02:39.276Z,1008.50
2019-05-10T07:03:38.241Z,1008.54
2019-05-10T07:04:41.117Z,1008.58
2019-05-10T07:05:38.222Z,1008.59
2019-05-10T07:06:38.374Z,1008.60
2019-05-10T07:07:45.738Z,1008.55
2019-05-10T07:08:44.292Z,1008.63
2019-05-10T07:10:01.348Z,1008.62
2019-05-10T07:10:39.216Z,1008.64
2019-05-10T07:11:38.169Z,1008.66
2019-05-10T07:12:38.244Z,1008.68
2019-05-10T07:13:40.489Z,1008.69
2019-05-10T07:14:45.537Z,1008.70
2019-05-10T07:15:42.022Z,1008.67
2019-05-10T07:16:39.107Z,1008.67
2019-05-10T07:17:45.176Z,1008.76
2019-05-10T07:18:39.078Z,1008.70
2019-05-10T07:19:42.125Z,1008.72
2019-05-10T07:20:42.773Z,1008.67
2019-05-10T07:21:39.120Z,1008.78
2019-05-10T07:22:39.045Z,1008.80
2019-05-10T07:23:44.002Z,1008.76
2019-05-10T07:24:39.050Z,1008.76
2019-05-10T07:25:43.506Z,1008.80
2019-05-10T07:26:39.060Z,1008.73
2019-05-10T07:27:38.661Z,1008.78
2019-05-10T07:28:38.008Z,1008.82
2019-05-10T07:29:43.434Z,1008.84
2019-05-10T07:30:41.515Z,1008.85
2019-05-10T07:31:37.998Z,1008.93
2019-05-10T07:32:37.946Z,1008.92
2019-05-10T07:33:40.085Z,1008.96
2019-05-10T07:34:37.910Z,1008.87
2019-05-10T07:35:38.819Z,1008.93
2019-05-10T07:36:37.879Z,1008.96
2019-05-10T07:37:37.883Z,1008.93
2019-05-10T07:38:37.868Z,1008.94
2019-05-10T07:39:37.858Z,1008.93
2019-05-10T07:40:37.869Z,1008.97
2019-05-10T07:41:37.845Z,1008.96
2019-05-10T07:42:39.752Z,1008.94
2019-05-10T07:43:38.868Z,1008.93
2019-05-10T07:44:41.619Z,1009.02
2019-05-10T07:45:38.806Z,1009.00
2019-05-10T07:46:40.174Z,1009.08
2019-05-10T07:47:38.773Z,1009.03
2019-05-10T07:48:41.137Z,1009.07
2019-05-10T07:49:38.747Z,1009.03
2019-05-10T07:50:42.478Z,1009.03
2019-05-10T07:51:38.743Z,1009.04
2019-05-10T07:52:43.525Z,1009.04
2019-05-10T07:53:38.704Z,1008.98
2019-05-10T07:54:45.203Z,1008.99
2019-05-10T07:55:38.683Z,1009.00
2019-05-10T07:56:38.937Z,1008.96
2019-05-10T07:57:38.683Z,1008.95
2019-05-10T07:58:42.811Z,1008.99
2019-05-10T07:59:50.178Z,1008.98
2019-05-10T08:00:44.450Z,1009.04
2019-05-10T08:01:38.621Z,1009.04
2019-05-10T08:02:37.628Z,1009.04
2019-05-10T08:03:44.153Z,1009.15
2019-05-10T08:04:38.590Z,1009.20
2019-05-10T08:05:39.091Z,1009.16
2019-05-10T08:06:43.441Z,1009.09
2019-05-10T08:07:38.894Z,1009.14
2019-05-10T08:08:39.072Z,1009.09
2019-05-10T08:09:44.703Z,1009.19
2019-05-10T08:10:39.412Z,1009.19
2019-05-10T08:11:39.044Z,1009.20
2019-05-10T08:12:41.481Z,1009.22
2019-05-10T08:13:39.323Z,1009.25
2019-05-10T08:14:39.381Z,1009.24
2019-05-10T08:15:38.306Z,1009.20
2019-05-10T08:16:38.730Z,1009.25
2019-05-10T08:17:43.173Z,1009.25
2019-05-10T08:18:39.805Z,1009.24
2019-05-10T08:19:38.943Z,1009.25
2019-05-10T08:20:49.490Z,1009.27
2019-05-10T08:21:38.423Z,1009.27
2019-05-10T08:22:41.352Z,1009.33
2019-05-10T08:23:38.380Z,1009.37
2019-05-10T08:24:37.372Z,1009.37
2019-05-10T08:25:44.390Z,1009.42
2019-05-10T08:26:38.458Z,1009.40
2019-05-10T08:27:44.111Z,1009.39
2019-05-10T08:28:43.842Z,1009.46
2019-05-10T08:29:38.318Z,1009.43
2019-05-10T08:30:42.818Z,1009.46
2019-05-10T08:31:50.613Z,1009.39
2019-05-10T08:32:38.318Z,1009.51
2019-05-10T08:33:37.305Z,1009.53
2019-05-10T08:34:39.423Z,1009.51
2019-05-10T08:35:38.924Z,1009.53
2019-05-10T08:36:42.282Z,1009.52
2019-05-10T08:37:38.243Z,1009.60
2019-05-10T08:38:39.577Z,1009.59
2019-05-10T08:39:45.619Z,1009.56
2019-05-10T08:40:38.280Z,1009.48
2019-05-10T08:41:37.217Z,1009.55
2019-05-10T08:42:45.475Z,1009.54
2019-05-10T08:43:39.079Z,1009.55
2019-05-10T08:44:37.163Z,1009.47
2019-05-10T08:45:43.621Z,1009.55
2019-05-10T08:46:41.579Z,1009.55
2019-05-10T08:47:38.137Z,1009.53
2019-05-10T08:48:38.077Z,1009.61
2019-05-10T08:49:52.415Z,1009.63
2019-05-10T08:50:49.698Z,1009.58
2019-05-10T08:51:43.835Z,1009.63
2019-05-10T08:52:38.067Z,1009.72
2019-05-10T08:53:37.088Z,1009.71
2019-05-10T08:54:37.059Z,1009.63
2019-05-10T08:55:37.039Z,1009.65
2019-05-10T08:56:37.038Z,1009.68
2019-05-10T08:57:44.398Z,1009.62
2019-05-10T08:58:38.033Z,1009.66
2019-05-10T08:59:36.996Z,1009.63
2019-05-10T09:00:49.537Z,1009.72
2019-05-10T09:01:44.459Z,1009.76
2019-05-10T09:02:37.969Z,1009.75
2019-05-10T09:03:36.975Z,1009.72
2019-05-10T09:04:43.705Z,1009.96
2019-05-10T09:05:39.860Z,1009.93
2019-05-10T09:06:36.929Z,1009.70
2019-05-10T09:07:38.977Z,1009.72
2019-05-10T09:08:36.903Z,1009.69
2019-05-10T09:09:45.474Z,1009.75
2019-05-10T09:10:37.882Z,1009.75
2019-05-10T09:11:36.867Z,1009.76
2019-05-10T09:12:44.232Z,1009.83
2019-05-10T09:13:41.464Z,1009.79
2019-05-10T09:14:37.830Z,1009.86
2019-05-10T09:15:43.281Z,1009.84
2019-05-10T09:16:43.407Z,1009.80
2019-05-10T09:17:37.855Z,1009.84
2019-05-10T09:18:38.257Z,1009.88
2019-05-10T09:19:41.851Z,1009.89
2019-05-10T09:20:37.770Z,1009.88
2019-05-10T09:21:42.249Z,1009.88
2019-05-10T09:22:38.710Z,1009.96
2019-05-10T09:23:36.755Z,1009.96
2019-05-10T09:24:41.041Z,1009.95
2019-05-10T09:25:37.716Z,1009.96
2019-05-10T09:26:36.707Z,1010.00
2019-05-10T09:27:36.687Z,1010.00
2019-05-10T09:28:36.723Z,1010.07
2019-05-10T09:29:37.476Z,1010.08
2019-05-10T09:30:36.666Z,1010.05
2019-05-10T09:31:39.379Z,1010.06
2019-05-10T09:32:39.864Z,1010.11
2019-05-10T09:33:40.976Z,1010.15
2019-05-10T09:34:37.633Z,1010.10
2019-05-10T09:35:38.885Z,1010.16
2019-05-10T09:36:37.591Z,1010.22
2019-05-10T09:37:36.585Z,1010.24
2019-05-10T09:38:39.216Z,1010.18
2019-05-10T09:39:37.585Z,1010.32
2019-05-10T09:40:42.653Z,1010.35
2019-05-10T09:41:38.516Z,1010.37
2019-05-10T09:42:39.965Z,1010.36
2019-05-10T09:43:40.596Z,1010.35
2019-05-10T09:44:37.523Z,1010.41
2019-05-10T09:45:36.518Z,1010.33
2019-05-10T09:46:36.498Z,1010.39
2019-05-10T09:47:36.599Z,1010.39
2019-05-10T09:48:36.473Z,1010.39
2019-05-10T09:49:36.479Z,1010.46
2019-05-10T09:50:44.348Z,1010.39
2019-05-10T09:51:37.437Z,1010.39
2019-05-10T09:52:36.428Z,1010.36
2019-05-10T09:53:38.250Z,1010.42
2019-05-10T09:54:38.069Z,1010.34
2019-05-10T09:55:36.940Z,1010.40
2019-05-10T09:56:39.639Z,1010.29
2019-05-10T09:57:37.967Z,1010.37
2019-05-10T09:58:38.700Z,1010.33
2019-05-10T09:59:36.896Z,1010.39
2019-05-10T10:00:38.015Z,1010.42
2019-05-10T10:01:37.109Z,1010.34
2019-05-10T10:02:37.730Z,1010.37
2019-05-10T10:03:43.285Z,1010.33
2019-05-10T10:04:37.343Z,1010.30
2019-05-10T10:05:39.740Z,1010.42
2019-05-10T10:06:36.963Z,1010.36
2019-05-10T10:07:37.373Z,1010.46
2019-05-10T10:08:38.263Z,1010.45
2019-05-10T10:09:42.384Z,1010.36
2019-05-10T10:10:37.357Z,1010.39
2019-05-10T10:11:36.230Z,1010.41
2019-05-10T10:12:37.338Z,1010.47
2019-05-10T10:13:42.662Z,1010.45
2019-05-10T10:14:39.459Z,1010.44
2019-05-10T10:15:37.435Z,1010.38
2019-05-10T10:16:36.178Z,1010.37
2019-05-10T10:17:42.003Z,1010.33
2019-05-10T10:18:37.358Z,1010.44
2019-05-10T10:19:37.557Z,1010.41
2019-05-10T10:20:43.496Z,1010.39
2019-05-10T10:21:38.939Z,1010.48
2019-05-10T10:22:38.132Z,1010.41
2019-05-10T10:23:37.811Z,1010.41
2019-05-10T10:24:40.497Z,1010.39
2019-05-10T10:25:40.475Z,1010.44
2019-05-10T10:26:37.925Z,1010.38
2019-05-10T10:27:38.644Z,1010.38
2019-05-10T10:28:39.318Z,1010.44
2019-05-10T10:29:38.604Z,1010.43
2019-05-10T10:30:37.388Z,1010.45
2019-05-10T10:31:48.324Z,1010.47
2019-05-10T10:32:37.568Z,1010.47
2019-05-10T10:33:37.948Z,1010.48
2019-05-10T10:34:38.685Z,1010.50
2019-05-10T10:35:37.876Z,1010.36
2019-05-10T10:36:40.367Z,1010.55
2019-05-10T10:37:37.853Z,1010.50
2019-05-10T10:38:37.162Z,1010.49
2019-05-10T10:39:37.258Z,1010.52
2019-05-10T10:40:44.217Z,1010.51
2019-05-10T10:41:36.901Z,1010.50
2019-05-10T10:42:38.049Z,1010.48
2019-05-10T10:43:37.044Z,1010.47
2019-05-10T10:44:37.086Z,1010.50
2019-05-10T10:45:37.662Z,1010.55
2019-05-10T10:46:35.841Z,1010.50
2019-05-10T10:47:37.892Z,1010.56
2019-05-10T10:48:37.004Z,1010.53
2019-05-10T10:49:37.837Z,1010.55
2019-05-10T10:50:35.805Z,1010.58
2019-05-10T10:51:37.776Z,1010.57
2019-05-10T10:52:37.614Z,1010.55
2019-05-10T10:53:35.786Z,1010.48
2019-05-10T10:54:37.452Z,1010.50
2019-05-10T10:55:39.436Z,1010.56
2019-05-10T10:56:37.448Z,1010.48
2019-05-10T10:57:37.371Z,1010.50
2019-05-10T10:58:35.723Z,1010.51
2019-05-10T10:59:37.372Z,1010.48
2019-05-10T11:00:38.672Z,1010.55
2019-05-10T11:01:49.150Z,1010.52
2019-05-10T11:02:36.667Z,1010.47
2019-05-10T11:03:35.674Z,1010.51
2019-05-10T11:04:40.469Z,1010.55
2019-05-10T11:05:36.641Z,1010.56
2019-05-10T11:06:35.633Z,1010.55
2019-05-10T11:07:38.509Z,1010.54
2019-05-10T11:08:35.613Z,1010.47
2019-05-10T11:09:35.621Z,1010.53
2019-05-10T11:10:35.590Z,1010.51
2019-05-10T11:11:38.756Z,1010.56
2019-05-10T11:12:36.563Z,1010.54
2019-05-10T11:13:44.145Z,1010.50
2019-05-10T11:14:40.279Z,1010.44
2019-05-10T11:15:36.746Z,1010.47
2019-05-10T11:16:35.518Z,1010.48
2019-05-10T11:17:35.510Z,1010.50
2019-05-10T11:18:35.518Z,1010.52
2019-05-10T11:19:35.487Z,1010.51
2019-05-10T11:20:35.478Z,1010.53
2019-05-10T11:21:35.470Z,1010.54
2019-05-10T11:22:35.475Z,1010.49
2019-05-10T11:23:39.163Z,1010.58
2019-05-10T11:24:36.439Z,1010.60
2019-05-10T11:25:35.430Z,1010.53
2019-05-10T11:26:36.989Z,1010.57
2019-05-10T11:27:35.404Z,1010.61
2019-05-10T11:28:39.991Z,1010.58
2019-05-10T11:29:36.384Z,1010.63
2019-05-10T11:30:35.382Z,1010.65
2019-05-10T11:31:35.362Z,1010.53
2019-05-10T11:32:35.376Z,1010.60
2019-05-10T11:33:35.352Z,1010.61
2019-05-10T11:34:38.934Z,1010.61
2019-05-10T11:35:35.322Z,1010.63
2019-05-10T11:36:35.323Z,1010.67
2019-05-10T11:37:36.348Z,1010.63
2019-05-10T11:38:35.290Z,1010.65
2019-05-10T11:39:42.148Z,1010.57
2019-05-10T11:40:36.273Z,1010.55
2019-05-10T11:41:35.283Z,1010.67
2019-05-10T11:42:37.492Z,1010.63
2019-05-10T11:43:36.238Z,1010.63
2019-05-10T11:44:35.267Z,1010.63
2019-05-10T11:45:36.801Z,1010.67
2019-05-10T11:46:35.199Z,1010.63
2019-05-10T11:47:35.222Z,1010.65
2019-05-10T11:48:37.315Z,1010.68
2019-05-10T11:49:35.177Z,1010.73
2019-05-10T11:50:35.728Z,1010.68
2019-05-10T11:51:35.145Z,1010.67
2019-05-10T11:52:36.484Z,1010.65
2019-05-10T11:53:35.163Z,1010.68
2019-05-10T11:54:35.114Z,1010.68
2019-05-10T11:56:36.104Z,1010.77
2019-05-10T11:57:35.192Z,1010.75
2019-05-10T11:58:37.790Z,1010.80
2019-05-10T11:59:03.906Z,1010.76
2019-05-10T11:59:38.654Z,1010.78
2019-05-10T12:00:36.064Z,1010.83
2019-05-10T12:01:35.065Z,1010.80
2019-05-10T12:02:38.756Z,1010.78
2019-05-10T12:03:36.022Z,1010.90
2019-05-10T12:04:39.152Z,1010.84
2019-05-10T12:05:36.032Z,1010.80
2019-05-10T12:06:41.225Z,1010.85